Time;durP1;ratioP1;P1;durP2;ratioP2;P2;SDS_P1;SDS_P2;PMS_P1;PMS_P2;Temp;Humidity;BMP_temperature;BMP_pressure;BME280_temperature;BME280_humidity;BME280_pressure;Samples;Min_cycle;Max_cycle;Signal;HPM_P1;HPM_P2
2022/04/15 00:00:32;;;;;;;16.70;7.45;;;11.10;99.90;;;;;;5009517;28;20033;-72
2022/04/15 00:02:57;;;;;;;15.40;6.80;;;11.20;99.90;;;;;;5025474;28;20228;-72
2022/04/15 00:05:41;;;;;;;12.90;6.70;;;11.10;99.90;;;;;;5025336;28;20244;-72
2022/04/15 00:08:09;;;;;;;11.40;7.28;;;11.10;99.90;;;;;;5025423;28;20088;-72
2022/04/15 00:10:35;;;;;;;17.20;7.65;;;11.10;99.90;;;;;;5025262;28;20059;-72
2022/04/15 00:13:03;;;;;;;16.50;7.30;;;11.20;99.90;;;;;;5039736;28;20205;-73
2022/04/15 00:15:29;;;;;;;17.60;8.75;;;11.20;99.90;;;;;;5028822;28;20104;-72
2022/04/15 00:17:55;;;;;;;12.85;6.90;;;11.20;99.90;;;;;;5044286;28;20029;-72
2022/04/15 00:20:21;;;;;;;11.40;6.65;;;11.30;99.90;;;;;;5028292;28;20025;-72
2022/04/15 00:22:47;;;;;;;13.50;6.90;;;11.20;99.90;;;;;;5044729;28;20312;-72
2022/04/15 00:25:13;;;;;;;11.82;6.88;;;11.10;99.90;;;;;;5028073;28;20076;-72
2022/04/15 00:27:40;;;;;;;14.10;6.68;;;11.10;99.90;;;;;;5044434;28;20320;-72
2022/04/15 00:30:08;;;;;;;14.65;6.72;;;11.10;99.90;;;;;;5027838;28;20048;-72
2022/04/15 00:32:35;;;;;;;15.38;7.47;;;11.10;99.90;;;;;;5028264;28;20220;-72
2022/04/15 00:35:01;;;;;;;16.73;8.20;;;11.10;99.90;;;;;;5043778;28;20036;-72
2022/04/15 00:37:27;;;;;;;18.38;8.20;;;11.10;99.90;;;;;;5045918;28;20080;-72
2022/04/15 00:39:53;;;;;;;15.93;8.45;;;11.00;99.90;;;;;;5044329;28;20224;-72
2022/04/15 00:42:21;;;;;;;18.08;7.57;;;11.00;99.90;;;;;;5044263;28;20029;-72
2022/04/15 00:44:48;;;;;;;14.77;8.07;;;11.00;99.90;;;;;;5044493;28;20021;-72
2022/04/15 00:47:21;;;;;;;16.67;8.70;;;11.00;99.90;;;;;;5010013;28;20101;-72
2022/04/15 00:49:47;;;;;;;15.73;7.63;;;11.00;99.90;;;;;;5011615;28;20025;-72
2022/04/15 00:52:14;;;;;;;13.07;7.90;;;11.10;99.90;;;;;;5044677;28;20316;-71
2022/04/15 00:54:42;;;;;;;13.05;7.60;;;11.10;99.90;;;;;;5043987;28;20059;-72
2022/04/15 00:57:11;;;;;;;16.33;8.25;;;11.00;99.90;;;;;;5027489;28;20057;-72
2022/04/15 00:59:39;;;;;;;14.18;8.48;;;10.80;99.90;;;;;;5043585;28;20239;-71
2022/04/15 01:02:08;;;;;;;11.45;7.43;;;10.80;99.90;;;;;;5045479;28;20338;-71
2022/04/15 01:04:35;;;;;;;15.18;8.32;;;10.70;99.90;;;;;;5043547;28;20320;-72
2022/04/15 01:07:04;;;;;;;15.98;8.35;;;10.70;99.90;;;;;;5027623;28;20018;-71
2022/04/15 01:09:33;;;;;;;14.48;8.85;;;10.70;99.90;;;;;;5043440;28;20370;-72
2022/04/15 01:12:01;;;;;;;17.88;8.70;;;10.60;99.90;;;;;;5040430;28;20032;-71
2022/04/15 01:14:29;;;;;;;15.10;8.32;;;10.50;99.90;;;;;;5023725;28;20355;-72
2022/04/15 01:16:55;;;;;;;13.57;8.07;;;10.50;99.90;;;;;;5023652;28;20245;-72
2022/04/15 01:19:21;;;;;;;15.23;8.50;;;10.40;99.90;;;;;;5023286;28;20049;-72
2022/04/15 01:21:48;;;;;;;21.40;8.57;;;10.50;99.90;;;;;;5024017;28;20194;-71
2022/04/15 01:24:14;;;;;;;15.98;8.35;;;10.50;99.90;;;;;;5023955;28;20060;-71
2022/04/15 01:26:40;;;;;;;17.45;8.32;;;10.50;99.90;;;;;;5024049;28;20017;-72
2022/04/15 01:29:06;;;;;;;16.13;8.10;;;10.40;99.90;;;;;;5007502;28;20068;-71
2022/04/15 01:31:32;;;;;;;20.65;8.70;;;10.30;99.90;;;;;;5007510;28;20030;-72
2022/04/15 01:33:59;;;;;;;14.63;8.07;;;10.40;99.90;;;;;;5030698;28;20034;-71
2022/04/15 01:36:26;;;;;;;17.25;8.10;;;10.30;99.90;;;;;;5043149;28;20112;-72
2022/04/15 01:38:52;;;;;;;22.75;8.52;;;10.30;99.90;;;;;;5043836;28;20323;-71
2022/04/15 01:41:18;;;;;;;15.65;8.15;;;10.30;99.90;;;;;;5026769;28;20280;-72
2022/04/15 01:43:43;;;;;;;13.00;7.90;;;10.20;99.90;;;;;;5009813;28;20025;-72
2022/04/15 01:46:09;;;;;;;15.65;8.65;;;10.20;99.90;;;;;;5009490;28;20021;-71
2022/04/15 01:48:35;;;;;;;13.52;8.18;;;10.10;99.90;;;;;;5024735;28;20045;-72
2022/04/15 01:51:01;;;;;;;10.20;7.45;;;10.10;99.90;;;;;;5026732;28;20212;-71
2022/04/15 01:53:26;;;;;;;14.57;7.55;;;9.90;99.90;;;;;;5025976;28;20057;-72
2022/04/15 01:55:52;;;;;;;15.23;8.68;;;9.90;99.90;;;;;;5026784;28;20201;-71
2022/04/15 01:58:18;;;;;;;11.77;7.28;;;10.00;99.90;;;;;;5030733;28;20014;-71
2022/04/15 02:00:43;;;;;;;16.45;8.27;;;10.00;99.90;;;;;;5007036;28;20021;-71
2022/04/15 02:03:09;;;;;;;22.13;8.32;;;10.00;99.90;;;;;;5007009;28;20272;-72
2022/04/15 02:05:35;;;;;;;13.23;7.65;;;10.00;99.90;;;;;;5023002;28;20014;-71
2022/04/15 02:08:00;;;;;;;14.90;7.60;;;10.00;99.90;;;;;;5007223;28;20025;-72
2022/04/15 02:10:26;;;;;;;14.02;7.32;;;10.00;99.90;;;;;;5023154;28;20190;-71
2022/04/15 02:12:52;;;;;;;14.30;7.15;;;10.00;99.90;;;;;;5024736;28;20021;-72
2022/04/15 02:15:17;;;;;;;14.77;7.80;;;10.00;99.90;;;;;;4990472;28;20260;-72
2022/04/15 02:17:43;;;;;;;17.10;7.07;;;10.10;99.90;;;;;;5022615;28;20049;-72
2022/04/15 02:20:11;;;;;;;11.40;6.50;;;10.10;99.90;;;;;;5022624;28;20033;-71
2022/04/15 02:22:37;;;;;;;13.15;7.82;;;10.10;99.90;;;;;;4990948;28;20049;-71
2022/04/15 02:25:04;;;;;;;13.02;7.22;;;10.00;99.90;;;;;;5024269;28;20049;-72
2022/04/15 02:27:29;;;;;;;13.60;7.50;;;10.00;99.90;;;;;;5006467;28;20353;-72
2022/04/15 02:29:55;;;;;;;14.90;7.47;;;10.00;99.90;;;;;;5006234;28;20021;-71
2022/04/15 02:32:22;;;;;;;14.93;7.50;;;10.00;99.90;;;;;;5022764;28;20056;-71
2022/04/15 02:34:47;;;;;;;19.45;7.63;;;10.00;99.90;;;;;;5036429;28;20037;-71
2022/04/15 02:37:13;;;;;;;16.23;7.97;;;10.00;99.90;;;;;;5026346;28;20023;-72
2022/04/15 02:39:39;;;;;;;16.08;7.70;;;10.00;99.90;;;;;;5026055;28;20021;-71
2022/04/15 02:42:05;;;;;;;16.70;8.20;;;10.00;99.90;;;;;;5009262;28;20029;-71
2022/04/15 02:44:31;;;;;;;15.60;7.97;;;10.00;99.90;;;;;;5042633;28;20033;-71
2022/04/15 02:46:58;;;;;;;20.08;8.80;;;9.90;99.90;;;;;;5041804;28;20021;-70
2022/04/15 02:49:26;;;;;;;14.25;8.40;;;9.90;99.90;;;;;;5024619;28;20028;-71
2022/04/15 02:51:53;;;;;;;16.23;8.38;;;9.90;99.90;;;;;;5009800;28;20308;-71
2022/04/15 02:54:19;;;;;;;16.83;8.27;;;9.80;99.90;;;;;;5042139;28;20046;-73
2022/04/15 02:56:44;;;;;;;16.67;8.63;;;9.90;99.90;;;;;;5042401;28;20064;-71
2022/04/15 02:59:10;;;;;;;13.70;8.27;;;9.90;99.90;;;;;;5013137;28;20320;-71
2022/04/15 03:01:36;;;;;;;15.50;8.35;;;9.80;99.90;;;;;;5030075;28;20032;-71
2022/04/15 03:04:01;;;;;;;16.75;8.50;;;9.80;99.90;;;;;;5047854;28;20017;-71
2022/04/15 03:06:27;;;;;;;11.15;7.45;;;9.80;99.90;;;;;;5029508;28;20366;-71
2022/04/15 03:08:55;;;;;;;16.60;8.30;;;9.90;99.90;;;;;;5029503;28;20374;-72
2022/04/15 03:11:20;;;;;;;19.10;8.60;;;9.80;99.90;;;;;;5030036;28;20301;-71
2022/04/15 03:13:46;;;;;;;15.70;8.60;;;9.70;99.90;;;;;;5026538;28;20024;-72
2022/04/15 03:16:12;;;;;;;18.40;8.68;;;9.80;99.90;;;;;;5026236;28;20126;-72
2022/04/15 03:18:38;;;;;;;14.00;8.80;;;9.80;99.90;;;;;;5026728;28;20324;-71
2022/04/15 03:21:04;;;;;;;19.48;8.75;;;9.80;99.90;;;;;;5026175;28;20026;-72
2022/04/15 03:23:30;;;;;;;15.77;8.55;;;9.90;99.90;;;;;;5026009;28;20141;-71
2022/04/15 03:25:56;;;;;;;15.80;8.48;;;9.90;99.90;;;;;;5027470;28;20301;-72
2022/04/15 03:28:21;;;;;;;13.45;8.45;;;10.00;99.90;;;;;;5042837;28;20068;-71
2022/04/15 03:30:48;;;;;;;16.70;7.82;;;9.90;99.90;;;;;;5025739;28;20033;-72
2022/04/15 03:33:13;;;;;;;18.67;8.55;;;9.90;99.90;;;;;;5027344;28;20037;-72
2022/04/15 03:35:39;;;;;;;13.23;7.82;;;9.80;99.90;;;;;;5029243;28;20041;-72
2022/04/15 03:38:05;;;;;;;14.20;8.45;;;9.80;99.90;;;;;;5029344;28;20025;-71
2022/04/15 03:40:31;;;;;;;12.35;7.20;;;9.70;99.90;;;;;;5012998;28;20048;-72
2022/04/15 03:42:57;;;;;;;14.35;7.70;;;9.70;99.90;;;;;;5046731;28;20322;-71
2022/04/15 03:45:23;;;;;;;12.98;7.85;;;9.70;99.90;;;;;;5012724;28;20033;-72
2022/04/15 03:47:50;;;;;;;18.10;8.63;;;9.70;99.90;;;;;;5045002;28;20100;-72
2022/04/15 03:50:16;;;;;;;12.10;7.90;;;9.60;99.90;;;;;;5044958;28;20033;-72
2022/04/15 03:52:46;;;;;;;17.75;8.88;;;9.50;99.90;;;;;;5028353;28;20035;-73
2022/04/15 03:55:14;;;;;;;16.55;8.30;;;9.50;99.90;;;;;;5045585;28;20071;-73
2022/04/15 03:57:40;;;;;;;17.40;8.50;;;9.50;99.90;;;;;;5028712;28;20025;-71
2022/04/15 04:00:08;;;;;;;16.27;8.43;;;9.40;99.90;;;;;;5045271;28;20018;-73
2022/04/15 04:02:35;;;;;;;17.98;7.55;;;9.40;99.90;;;;;;5045312;28;20029;-71
2022/04/15 04:05:00;;;;;;;18.10;8.52;;;9.50;99.90;;;;;;5028477;28;20021;-72
2022/04/15 04:07:26;;;;;;;17.77;8.70;;;9.50;99.90;;;;;;5028596;28;20028;-72
2022/04/15 04:09:52;;;;;;;16.73;8.02;;;9.50;99.90;;;;;;5028034;28;20025;-72
2022/04/15 04:12:18;;;;;;;14.00;7.65;;;9.50;99.90;;;;;;5037837;28;20014;-72
2022/04/15 04:14:43;;;;;;;13.15;6.78;;;9.50;99.90;;;;;;5025279;28;20034;-72
2022/04/15 04:17:09;;;;;;;18.25;7.90;;;9.50;99.90;;;;;;5025922;28;20022;-72
2022/04/15 04:19:35;;;;;;;14.05;7.63;;;9.50;99.90;;;;;;5025034;28;20028;-72
2022/04/15 04:22:00;;;;;;;13.73;7.40;;;9.50;99.90;;;;;;5024858;28;20045;-71
2022/04/15 04:24:26;;;;;;;16.67;7.75;;;9.40;99.90;;;;;;5008706;28;20025;-72
2022/04/15 04:26:52;;;;;;;13.85;6.93;;;9.40;99.90;;;;;;5024495;28;20224;-72
2022/04/15 04:29:17;;;;;;;11.45;7.63;;;9.40;99.90;;;;;;5041841;28;20093;-72
2022/04/15 04:31:43;;;;;;;20.90;7.90;;;9.30;99.90;;;;;;5008213;28;20093;-72
2022/04/15 04:34:09;;;;;;;14.15;7.63;;;9.20;99.90;;;;;;5033659;28;20025;-72
2022/04/15 04:36:35;;;;;;;15.55;7.28;;;9.20;99.90;;;;;;5044681;28;20041;-72
2022/04/15 04:39:00;;;;;;;14.20;7.20;;;9.20;99.90;;;;;;5028209;28;20272;-71
2022/04/15 04:41:26;;;;;;;12.05;7.18;;;9.10;99.90;;;;;;5045278;28;20037;-72
2022/04/15 04:43:52;;;;;;;14.40;7.97;;;9.00;99.90;;;;;;5011444;28;20033;-72
2022/04/15 04:46:18;;;;;;;15.70;8.45;;;9.00;99.90;;;;;;5027403;28;20021;-72
2022/04/15 04:48:44;;;;;;;14.52;7.40;;;9.10;99.90;;;;;;5011655;28;20025;-72
2022/04/15 04:51:09;;;;;;;15.70;8.35;;;9.10;99.90;;;;;;5026839;28;20021;-72
2022/04/15 04:53:35;;;;;;;11.50;7.38;;;9.00;99.90;;;;;;5027013;28;20057;-71
2022/04/15 04:56:01;;;;;;;13.85;7.70;;;9.00;99.90;;;;;;5011252;28;20021;-72
2022/04/15 04:58:27;;;;;;;15.13;8.38;;;8.90;99.90;;;;;;5044077;28;20029;-72
2022/04/15 05:00:52;;;;;;;16.23;7.93;;;8.90;99.90;;;;;;5027813;28;20022;-72
2022/04/15 05:03:18;;;;;;;18.48;7.65;;;8.80;99.90;;;;;;5027669;28;20071;-72
2022/04/15 05:05:44;;;;;;;18.58;7.68;;;8.90;99.90;;;;;;5044038;28;20017;-72
2022/04/15 05:08:09;;;;;;;14.50;7.82;;;8.80;99.90;;;;;;5027434;28;20223;-72
2022/04/15 05:10:35;;;;;;;17.48;8.43;;;8.90;99.90;;;;;;5044259;28;20021;-71
2022/04/15 05:13:01;;;;;;;20.08;8.75;;;8.80;99.90;;;;;;5034631;28;20124;-72
2022/04/15 05:15:27;;;;;;;16.15;8.02;;;8.70;99.90;;;;;;5023646;28;20030;-71
2022/04/15 05:17:52;;;;;;;22.25;8.27;;;8.80;99.90;;;;;;5007230;28;20133;-72
2022/04/15 05:20:19;;;;;;;19.80;9.43;;;8.80;99.90;;;;;;5023747;28;20072;-71
2022/04/15 05:22:45;;;;;;;22.73;8.23;;;8.70;99.90;;;;;;5007038;28;20208;-72
2022/04/15 05:25:10;;;;;;;17.65;8.45;;;8.70;99.90;;;;;;5040304;28;20022;-72
2022/04/15 05:27:37;;;;;;;20.05;7.90;;;8.70;99.90;;;;;;5023939;28;20026;-72
2022/04/15 05:30:04;;;;;;;19.55;8.35;;;8.70;99.90;;;;;;5023698;28;20041;-71
2022/04/15 05:32:30;;;;;;;14.48;7.47;;;8.70;99.90;;;;;;5039846;28;20022;-72
2022/04/15 05:34:55;;;;;;;14.63;7.63;;;8.70;99.90;;;;;;5027268;28;20302;-72
2022/04/15 05:37:21;;;;;;;16.70;8.00;;;8.80;99.90;;;;;;5026822;28;20045;-72
2022/04/15 05:39:47;;;;;;;19.42;8.10;;;8.80;99.90;;;;;;5043484;28;20057;-72
2022/04/15 05:42:13;;;;;;;14.93;7.80;;;8.70;99.90;;;;;;5026766;28;20014;-72
2022/04/15 05:44:41;;;;;;;15.82;8.05;;;8.80;99.90;;;;;;5043458;28;20020;-72
2022/04/15 05:47:07;;;;;;;15.20;8.05;;;8.90;99.90;;;;;;5010233;28;20021;-71
2022/04/15 05:49:34;;;;;;;14.45;8.10;;;8.80;99.90;;;;;;5042852;28;20088;-72
2022/04/15 05:52:01;;;;;;;14.05;7.57;;;8.90;99.90;;;;;;5008966;28;20233;-72
2022/04/15 05:54:27;;;;;;;19.65;7.60;;;8.90;99.90;;;;;;5042268;28;20045;-71
2022/04/15 05:56:53;;;;;;;12.27;7.40;;;9.00;99.90;;;;;;5042569;28;20025;-71
2022/04/15 05:59:21;;;;;;;13.00;7.28;;;9.00;99.90;;;;;;5026097;28;20021;-72
2022/04/15 06:01:48;;;;;;;14.55;7.63;;;9.00;99.90;;;;;;5026714;28;20021;-72
2022/04/15 06:04:14;;;;;;;14.90;7.28;;;9.00;99.90;;;;;;5042717;28;20232;-71
2022/04/15 06:06:40;;;;;;;14.80;8.35;;;9.00;99.90;;;;;;5043590;28;20025;-72
2022/04/15 06:09:06;;;;;;;14.70;7.95;;;9.00;99.90;;;;;;5026314;28;20079;-72
2022/04/15 06:11:32;;;;;;;16.55;8.38;;;9.00;99.90;;;;;;5041144;28;20125;-72
2022/04/15 06:14:00;;;;;;;15.30;8.23;;;9.10;99.90;;;;;;5022679;28;20021;-73
2022/04/15 06:16:31;;;;;;;14.20;7.40;;;9.10;99.90;;;;;;5022458;28;20037;-72
2022/04/15 06:18:58;;;;;;;16.92;7.70;;;9.30;99.90;;;;;;5022896;28;20301;-71
2022/04/15 06:21:24;;;;;;;18.75;8.48;;;9.50;99.90;;;;;;5022996;28;20036;-72
2022/04/15 06:23:49;;;;;;;18.38;7.88;;;9.70;99.90;;;;;;5022793;28;20312;-72
2022/04/15 06:26:15;;;;;;;19.23;7.85;;;9.70;99.90;;;;;;5022701;28;20028;-71
2022/04/15 06:28:41;;;;;;;17.42;7.97;;;9.80;99.90;;;;;;5022856;28;20026;-71
2022/04/15 06:31:06;;;;;;;19.63;8.32;;;9.90;99.90;;;;;;5023194;28;20034;-71
2022/04/15 06:33:32;;;;;;;17.10;8.35;;;10.00;99.90;;;;;;5027288;28;20021;-71
2022/04/15 06:36:00;;;;;;;14.45;7.72;;;10.10;99.90;;;;;;5042333;28;20031;-72
2022/04/15 06:38:26;;;;;;;16.63;7.78;;;10.20;99.90;;;;;;5009634;28;20116;-72
2022/04/15 06:40:52;;;;;;;15.18;7.18;;;10.30;99.90;;;;;;5025926;28;20025;-72
2022/04/15 06:43:17;;;;;;;14.77;7.28;;;10.40;99.90;;;;;;5042582;28;20127;-72
2022/04/15 06:45:43;;;;;;;16.13;8.40;;;10.50;99.90;;;;;;5026232;28;20092;-72
2022/04/15 06:48:09;;;;;;;13.80;7.70;;;10.50;99.90;;;;;;5022380;28;20026;-72
2022/04/15 06:50:35;;;;;;;15.20;7.93;;;10.70;99.90;;;;;;5006147;28;20029;-72
2022/04/15 06:53:01;;;;;;;10.35;7.30;;;10.70;99.90;;;;;;5020444;28;20058;-72
2022/04/15 06:55:27;;;;;;;13.93;7.65;;;10.70;99.90;;;;;;5006067;28;20025;-73
2022/04/15 06:57:52;;;;;;;14.25;7.70;;;10.80;99.90;;;;;;4989971;28;20049;-72
2022/04/15 07:00:18;;;;;;;10.70;7.00;;;10.90;99.90;;;;;;5005736;28;20076;-73
2022/04/15 07:02:44;;;;;;;14.32;7.65;;;11.00;99.90;;;;;;5029453;28;20218;-72
2022/04/15 07:05:10;;;;;;;13.93;7.40;;;11.10;99.90;;;;;;5042085;28;20100;-72
2022/04/15 07:07:38;;;;;;;10.48;6.15;;;11.10;99.90;;;;;;5042174;28;20093;-72
2022/04/15 07:10:05;;;;;;;9.88;6.38;;;11.30;99.90;;;;;;5025158;28;20057;-72
2022/04/15 07:12:31;;;;;;;12.88;6.70;;;11.40;99.90;;;;;;5025770;28;20247;-72
2022/04/15 07:14:57;;;;;;;12.00;6.38;;;11.40;99.90;;;;;;5025562;28;20033;-72
2022/04/15 07:17:24;;;;;;;13.82;6.50;;;11.40;99.90;;;;;;5025357;28;20109;-72
2022/04/15 07:19:50;;;;;;;14.88;6.95;;;11.50;99.90;;;;;;5041947;28;20277;-72
2022/04/15 07:22:19;;;;;;;12.57;6.45;;;11.60;99.90;;;;;;5025511;28;20029;-72
2022/04/15 07:24:46;;;;;;;9.88;5.90;;;11.70;99.90;;;;;;5042108;28;20360;-73
2022/04/15 07:27:11;;;;;;;10.75;6.20;;;11.80;99.90;;;;;;5041547;28;20040;-72
2022/04/15 07:29:37;;;;;;;12.13;5.97;;;11.80;99.90;;;;;;5025752;28;20021;-72
2022/04/15 07:32:03;;;;;;;8.20;5.55;;;12.00;99.90;;;;;;5041837;28;20017;-72
2022/04/15 07:34:29;;;;;;;8.50;4.95;;;12.10;99.90;;;;;;5041947;28;20089;-72
2022/04/15 07:36:57;;;;;;;10.70;4.97;;;12.10;99.90;;;;;;5041884;28;20033;-72
2022/04/15 07:39:24;;;;;;;11.93;5.30;;;12.20;99.90;;;;;;5025537;28;20037;-72
2022/04/15 07:41:50;;;;;;;8.40;4.70;;;12.30;99.90;;;;;;5041952;28;20205;-72
2022/04/15 07:44:17;;;;;;;9.95;4.57;;;12.30;99.90;;;;;;5043109;28;20076;-72
2022/04/15 07:46:44;;;;;;;11.85;5.30;;;12.40;99.90;;;;;;5028359;28;20021;-73
2022/04/15 07:49:10;;;;;;;7.80;4.53;;;12.40;99.90;;;;;;5045257;28;20081;-73
2022/04/15 07:51:37;;;;;;;11.35;4.93;;;12.40;99.90;;;;;;5028703;28;20021;-73
2022/04/15 07:54:04;;;;;;;12.75;6.03;;;12.50;99.90;;;;;;5043305;28;20053;-72
2022/04/15 07:56:32;;;;;;;11.05;5.90;;;12.50;99.90;;;;;;5044774;28;20036;-73
2022/04/15 07:58:58;;;;;;;9.65;5.55;;;12.60;99.90;;;;;;5025637;28;20032;-73
2022/04/15 08:01:27;;;;;;;12.00;6.10;;;12.70;99.90;;;;;;5025266;28;20032;-72
2022/04/15 08:03:54;;;;;;;11.35;6.07;;;12.80;99.90;;;;;;5025279;28;20022;-72
2022/04/15 08:06:20;;;;;;;12.35;6.10;;;12.80;99.90;;;;;;5009165;28;20026;-72
2022/04/15 08:08:46;;;;;;;10.30;5.70;;;12.90;99.90;;;;;;5024982;28;20025;-72
2022/04/15 08:11:11;;;;;;;11.07;5.65;;;13.00;99.90;;;;;;5025990;28;20029;-72
2022/04/15 08:13:37;;;;;;;13.00;6.30;;;13.10;99.90;;;;;;5040162;28;20049;-72
2022/04/15 08:16:04;;;;;;;11.23;6.13;;;13.20;99.90;;;;;;5024509;28;20045;-72
2022/04/15 08:18:30;;;;;;;10.82;5.55;;;13.40;99.90;;;;;;5008368;28;20080;-72
2022/04/15 08:20:56;;;;;;;9.07;5.57;;;13.40;99.90;;;;;;5024787;28;20104;-73
2022/04/15 08:23:22;;;;;;;11.52;5.40;;;13.50;99.90;;;;;;5024542;28;20030;-72
2022/04/15 08:25:48;;;;;;;7.55;4.70;;;13.60;99.90;;;;;;5008387;28;20026;-73
2022/04/15 08:28:14;;;;;;;7.10;4.43;;;13.70;99.90;;;;;;5024630;28;20038;-73
2022/04/15 08:30:40;;;;;;;8.70;4.82;;;13.80;99.90;;;;;;5024609;28;20249;-73
2022/04/15 08:33:07;;;;;;;7.22;4.60;;;13.90;99.90;;;;;;5008599;28;20048;-73
2022/04/15 08:35:34;;;;;;;7.05;3.85;;;14.00;99.90;;;;;;5027958;28;20343;-73
2022/04/15 08:38:01;;;;;;;7.95;4.00;;;14.20;99.90;;;;;;5027919;28;20444;-72
2022/04/15 08:40:31;;;;;;;9.23;3.92;;;14.30;99.90;;;;;;5044544;28;20037;-73
2022/04/15 08:42:57;;;;;;;8.63;3.28;;;14.50;99.90;;;;;;5044426;28;20024;-73
2022/04/15 08:45:25;;;;;;;6.97;3.15;;;14.80;99.90;;;;;;5045552;28;20071;-72
2022/04/15 08:47:59;;;;;;;5.13;2.78;;;14.90;99.90;;;;;;5043867;28;20080;-72
2022/04/15 08:50:27;;;;;;;7.30;3.38;;;15.00;99.90;;;;;;5044387;28;20028;-72
2022/04/15 08:52:55;;;;;;;4.82;2.70;;;15.20;99.90;;;;;;5044216;28;20026;-72
2022/04/15 08:55:21;;;;;;;8.18;2.58;;;15.40;99.80;;;;;;5025994;28;20307;-73
2022/04/15 08:57:48;;;;;;;5.03;2.28;;;15.60;99.30;;;;;;5024405;28;20072;-73
2022/04/15 09:00:15;;;;;;;3.47;2.13;;;16.00;98.70;;;;;;5025559;28;20033;-72
2022/04/15 09:02:41;;;;;;;2.08;1.55;;;16.30;97.70;;;;;;5025252;28;20033;-72
2022/04/15 09:05:08;;;;;;;3.00;1.48;;;16.50;96.90;;;;;;4991729;28;20077;-73
2022/04/15 09:07:35;;;;;;;3.13;1.55;;;16.60;96.00;;;;;;5007625;28;20312;-72
2022/04/15 09:10:02;;;;;;;1.55;1.35;;;16.70;95.80;;;;;;5023998;28;20026;-72
2022/04/15 09:12:29;;;;;;;3.95;1.63;;;16.60;95.80;;;;;;5043364;28;20308;-71
2022/04/15 09:15:12;;;;;;;3.95;1.45;;;16.60;95.70;;;;;;5045227;28;20017;-72
2022/04/15 09:17:40;;;;;;;2.72;1.70;;;16.60;95.50;;;;;;5043512;28;20198;-72
2022/04/15 09:20:09;;;;;;;2.53;1.77;;;16.50;95.40;;;;;;5044002;28;20029;-72
2022/04/15 09:22:36;;;;;;;4.07;1.80;;;16.50;95.70;;;;;;5043422;28;20030;-72
2022/04/15 09:25:03;;;;;;;3.92;1.88;;;16.60;96.60;;;;;;5043685;28;20058;-72
2022/04/15 09:27:29;;;;;;;4.07;2.13;;;16.70;96.40;;;;;;5043497;28;20189;-72
2022/04/15 09:29:56;;;;;;;5.30;2.10;;;16.70;96.40;;;;;;5043595;28;20027;-72
2022/04/15 09:32:24;;;;;;;2.95;2.00;;;16.70;96.40;;;;;;5043605;28;20085;-72
2022/04/15 09:35:15;;;;;;;3.83;1.60;;;16.70;96.30;;;;;;5043470;28;20017;-72
2022/04/15 09:37:43;;;;;;;4.35;1.55;;;16.80;95.80;;;;;;5030567;28;20036;-73
2022/04/15 09:40:26;;;;;;;3.55;2.25;;;16.80;95.30;;;;;;5026963;28;20022;-72
2022/04/15 09:42:57;;;;;;;4.32;2.13;;;16.80;96.10;;;;;;5043608;28;20049;-72
2022/04/15 09:45:25;;;;;;;3.40;1.65;;;17.00;96.10;;;;;;5010538;28;20072;-73
2022/04/15 09:48:04;;;;;;;1.63;1.52;;;17.10;95.40;;;;;;5042802;28;20025;-72
2022/04/15 09:50:42;;;;;;;2.45;1.35;;;17.10;95.20;;;;;;5027233;28;20025;-73
2022/04/15 09:53:13;;;;;;;4.15;1.50;;;17.20;95.60;;;;;;5046552;28;20332;-73
2022/04/15 09:55:40;;;;;;;;;;;17.30;95.10;;;;;;5009440;28;20038;-71
2022/04/15 09:58:10;;;;;;;2.28;1.20;;;17.40;94.90;;;;;;5042915;28;19964;-72
2022/04/15 10:00:38;;;;;;;2.53;1.10;;;17.40;94.70;;;;;;5042707;28;20024;-72
2022/04/15 10:03:07;;;;;;;2.15;1.23;;;17.50;93.70;;;;;;5026602;28;20025;-73
2022/04/15 10:05:35;;;;;;;2.30;1.10;;;17.60;93.30;;;;;;5042737;28;20257;-72
2022/04/15 10:08:02;;;;;;;2.85;1.48;;;17.60;93.30;;;;;;5025984;28;20025;-73
2022/04/15 10:10:30;;;;;;;3.55;1.23;;;17.60;93.40;;;;;;5042879;28;20101;-73
2022/04/15 10:12:59;;;;;;;4.28;1.20;;;17.70;93.30;;;;;;5029817;28;20034;-73
2022/04/15 10:15:26;;;;;;;1.73;1.10;;;17.90;93.20;;;;;;5023171;28;20189;-73
2022/04/15 10:17:52;;;;;;;2.72;1.40;;;17.90;93.10;;;;;;5022571;28;20034;-74
2022/04/15 10:20:18;;;;;;;3.05;1.27;;;17.90;93.20;;;;;;5023277;28;20045;-73
2022/04/15 10:22:45;;;;;;;3.80;1.05;;;18.00;93.10;;;;;;5006306;28;20317;-73
2022/04/15 10:25:11;;;;;;;2.92;0.98;;;18.20;93.10;;;;;;5024129;28;20033;-73
2022/04/15 10:27:37;;;;;;;3.10;0.90;;;18.30;92.20;;;;;;5022708;28;20025;-73
2022/04/15 10:30:18;;;;;;;2.05;0.70;;;18.40;91.20;;;;;;5022877;28;20213;-73
2022/04/15 10:32:49;;;;;;;1.70;0.82;;;18.40;91.70;;;;;;5022566;28;20036;-73
2022/04/15 10:35:25;;;;;;;3.53;1.10;;;18.50;91.20;;;;;;5024074;28;20322;-73
2022/04/15 10:38:00;;;;;;;4.32;1.10;;;18.60;91.10;;;;;;5025896;28;20358;-74
2022/04/15 10:40:32;;;;;;;3.72;0.90;;;18.80;90.60;;;;;;5042358;28;20028;-73
2022/04/15 10:43:17;;;;;;;6.43;0.80;;;18.80;90.10;;;;;;5026120;28;20059;-73
2022/04/15 10:45:43;;;;;;;1.45;0.70;;;18.90;90.10;;;;;;5026005;28;20021;-73
2022/04/15 10:48:09;;;;;;;2.42;0.80;;;19.00;90.00;;;;;;5043100;28;20320;-72
2022/04/15 10:50:35;;;;;;;1.55;0.60;;;19.10;89.60;;;;;;5009589;28;20104;-72
2022/04/15 10:53:27;;;;;;;4.63;1.38;;;19.20;90.00;;;;;;5043207;28;20021;-72
2022/04/15 10:55:53;;;;;;;6.63;1.42;;;19.30;90.00;;;;;;5024475;28;20083;-73
2022/04/15 10:58:21;;;;;;;2.75;1.00;;;19.30;89.90;;;;;;5043536;28;20017;-72
2022/04/15 11:01:22;;;;;;;5.07;1.13;;;19.30;90.10;;;;;;5025860;28;20044;-72
2022/04/15 11:04:01;;;;;;;2.95;0.85;;;19.10;90.30;;;;;;5025725;28;20021;-73
2022/04/15 11:06:28;;;;;;;5.55;1.52;;;19.10;90.40;;;;;;5026535;28;20383;-72
2022/04/15 11:08:54;;;;;;;2.97;1.70;;;19.30;90.40;;;;;;5025402;28;20020;-72
2022/04/15 11:11:39;;;;;;;6.53;1.65;;;19.30;90.20;;;;;;5042490;28;20022;-73
2022/04/15 11:14:05;;;;;;;4.82;2.08;;;19.30;90.70;;;;;;5038915;28;20076;-73
2022/04/15 11:16:42;;;;;;;5.28;2.40;;;19.40;90.80;;;;;;5021678;28;20030;-74
2022/04/15 11:19:08;;;;;;;5.32;2.10;;;19.50;90.80;;;;;;5006195;28;20224;-72
2022/04/15 11:21:37;;;;;;;7.03;2.65;;;19.50;90.70;;;;;;5026092;28;20098;-73
2022/04/15 11:24:10;;;;;;;3.72;2.50;;;19.40;90.80;;;;;;5042741;28;20359;-72
2022/04/15 11:26:39;;;;;;;3.22;2.22;;;19.40;90.90;;;;;;5010304;28;20032;-72
2022/04/15 11:29:07;;;;;;;4.60;2.63;;;19.50;91.20;;;;;;5026810;28;20018;-72
2022/04/15 11:31:36;;;;;;;3.95;2.03;;;19.60;91.00;;;;;;5009820;28;20029;-72
2022/04/15 11:34:17;;;;;;;8.75;2.58;;;19.70;90.70;;;;;;5050163;28;20063;-73
2022/04/15 11:36:45;;;;;;;;;;;19.80;90.60;;;;;;5029295;28;20036;-72
2022/04/15 11:39:13;;;;;;;5.68;2.17;;;19.80;90.60;;;;;;5028801;28;19905;-73
2022/04/15 11:41:44;;;;;;;7.97;3.20;;;19.90;90.80;;;;;;5045429;28;20098;-73
2022/04/15 11:44:11;;;;;;;6.03;2.80;;;19.80;90.40;;;;;;5029032;28;20342;-73
2022/04/15 11:46:43;;;;;;;3.90;2.72;;;19.70;91.00;;;;;;5045532;28;20312;-72
2022/04/15 11:49:30;;;;;;;7.03;2.88;;;19.80;91.10;;;;;;5029163;28;20024;-73
2022/04/15 11:51:58;;;;;;;5.88;2.42;;;19.80;91.10;;;;;;5008921;28;20047;-73
2022/04/15 11:54:35;;;;;;;3.92;2.58;;;19.80;90.80;;;;;;5024978;28;20298;-73
2022/04/15 11:57:03;;;;;;;4.95;2.75;;;19.90;90.90;;;;;;5026977;28;20392;-73
2022/04/15 11:59:37;;;;;;;4.38;3.00;;;20.00;90.90;;;;;;5045264;28;20021;-72
2022/04/15 12:02:03;;;;;;;4.45;2.72;;;20.20;90.60;;;;;;5029015;28;20017;-73
2022/04/15 12:04:29;;;;;;;5.28;2.08;;;20.30;90.40;;;;;;5044942;28;20018;-73
2022/04/15 12:06:55;;;;;;;4.40;2.00;;;20.40;90.30;;;;;;5045147;28;20048;-74
2022/04/15 12:09:23;;;;;;;4.78;2.33;;;20.30;90.30;;;;;;5028720;28;20021;-72
2022/04/15 12:11:49;;;;;;;3.40;2.13;;;20.20;90.40;;;;;;5040352;28;20029;-72
2022/04/15 12:14:17;;;;;;;4.38;1.75;;;20.30;90.60;;;;;;5024847;28;20025;-73
2022/04/15 12:16:45;;;;;;;7.65;2.45;;;20.50;90.30;;;;;;5008183;28;20034;-73
2022/04/15 12:19:12;;;;;;;2.90;2.17;;;20.70;89.40;;;;;;5041342;28;20313;-73
2022/04/15 12:21:38;;;;;;;2.58;2.10;;;20.70;89.10;;;;;;5024764;28;20080;-73
2022/04/15 12:24:07;;;;;;;2.78;2.10;;;20.70;89.80;;;;;;5008063;28;20036;-73
2022/04/15 12:26:46;;;;;;;5.63;2.75;;;20.60;90.20;;;;;;5009030;28;20220;-73
2022/04/15 12:32:24;;;;;;;2.72;1.77;;;20.60;89.50;;;;;;5024442;28;20025;-73
2022/04/15 12:35:10;;;;;;;4.65;2.08;;;20.60;88.40;;;;;;5022694;28;20363;-73
2022/04/15 12:37:42;;;;;;;5.88;2.03;;;20.70;89.00;;;;;;5044686;28;20108;-73
2022/04/15 12:40:29;;;;;;;6.72;2.30;;;20.70;87.20;;;;;;5044494;28;20021;-74
2022/04/15 12:42:56;;;;;;;6.93;2.50;;;20.60;88.70;;;;;;5028237;28;20040;-74
2022/04/15 12:45:23;;;;;;;5.45;2.28;;;20.60;89.10;;;;;;5028144;28;20052;-73
2022/04/15 12:48:05;;;;;;;3.38;2.08;;;20.90;89.00;;;;;;5011349;28;20210;-73